createdAt,value
2023-03-31T00:00:53.765Z,81.24
2023-03-31T00:01:58.541Z,81.33
2023-03-31T00:03:03.895Z,81.38
2023-03-31T00:04:09.370Z,81.50
2023-03-31T00:05:18.741Z,81.55
2023-03-31T00:06:23.490Z,81.52
2023-03-31T00:07:27.797Z,81.74
2023-03-31T00:08:36.120Z,81.55
2023-03-31T00:09:41.570Z,81.64
2023-03-31T00:10:48.653Z,81.85
2023-03-31T00:11:52.617Z,81.80
2023-03-31T00:12:56.716Z,81.73
2023-03-31T00:14:00.436Z,82.10
2023-03-31T00:15:04.145Z,82.00
2023-03-31T00:16:11.259Z,82.18
2023-03-31T00:17:15.666Z,81.70
2023-03-31T00:18:19.374Z,82.14
2023-03-31T00:19:23.313Z,82.25
2023-03-31T00:20:27.504Z,81.94
2023-03-31T00:21:34.491Z,81.88
2023-03-31T00:22:39.646Z,81.78
2023-03-31T00:23:43.341Z,82.25
2023-03-31T00:24:47.551Z,81.99
2023-03-31T00:25:51.177Z,82.05
2023-03-31T00:26:54.673Z,81.82
2023-03-31T00:27:58.651Z,81.78
2023-03-31T00:29:02.585Z,81.63
2023-03-31T00:30:06.716Z,81.32
2023-03-31T00:31:10.618Z,81.21
2023-03-31T00:32:15.249Z,81.56
2023-03-31T00:33:19.329Z,81.28
2023-03-31T00:34:23.521Z,81.21
2023-03-31T00:35:27.584Z,81.30
2023-03-31T00:36:32.165Z,80.96
2023-03-31T00:37:36.005Z,80.89
2023-03-31T00:38:40.109Z,80.84
2023-03-31T00:39:44.298Z,80.92
2023-03-31T00:40:47.991Z,81.06
2023-03-31T00:41:51.725Z,81.04
2023-03-31T00:42:55.738Z,80.82
2023-03-31T00:44:25.109Z,80.93
2023-03-31T00:45:32.138Z,80.76
2023-03-31T00:46:47.350Z,80.66
2023-03-31T00:48:04.691Z,80.87
2023-03-31T00:49:12.808Z,81.08
2023-03-31T00:50:19.795Z,81.33
2023-03-31T00:51:23.984Z,81.46
2023-03-31T00:52:38.135Z,81.36
2023-03-31T00:53:41.717Z,81.04
2023-03-31T00:54:46.460Z,81.39
2023-03-31T00:55:52.163Z,81.64
2023-03-31T00:56:58.972Z,81.96
2023-03-31T00:58:05.160Z,81.78
2023-03-31T00:59:10.238Z,82.40
2023-03-31T01:00:17.894Z,82.71
2023-03-31T01:01:25.148Z,82.77
2023-03-31T01:02:29.505Z,82.88
2023-03-31T01:03:33.997Z,82.86
2023-03-31T01:04:41.423Z,83.34
2023-03-31T01:05:49.366Z,83.46
2023-03-31T01:07:27.940Z,83.78
2023-03-31T01:08:32.061Z,84.29
2023-03-31T01:09:36.232Z,84.29
2023-03-31T01:10:42.957Z,84.81
2023-03-31T01:11:48.075Z,85.17
2023-03-31T01:12:54.627Z,85.10
2023-03-31T01:13:58.612Z,84.83
2023-03-31T01:15:02.382Z,85.05
2023-03-31T01:16:06.405Z,85.24
2023-03-31T01:17:10.342Z,85.16
2023-03-31T01:18:14.875Z,85.04
2023-03-31T01:19:25.785Z,85.08
2023-03-31T01:20:57.064Z,85.19
2023-03-31T01:22:24.865Z,85.52
2023-03-31T01:23:31.300Z,85.58
2023-03-31T01:24:40.035Z,85.40
2023-03-31T01:26:08.731Z,85.72
2023-03-31T01:27:22.764Z,86.19
2023-03-31T01:28:44.877Z,86.30
2023-03-31T01:30:07.881Z,86.56
2023-03-31T01:31:11.552Z,86.43
2023-03-31T01:32:28.855Z,86.69
2023-03-31T01:33:44.212Z,86.85
2023-03-31T01:35:09.300Z,86.83
2023-03-31T01:36:37.250Z,86.91
2023-03-31T01:38:36.507Z,86.69
2023-03-31T01:40:05.637Z,86.63
2023-03-31T01:41:51.164Z,86.66
2023-03-31T01:42:57.786Z,86.96
2023-03-31T01:44:19.129Z,87.17
2023-03-31T01:45:50.637Z,87.67
2023-03-31T01:47:12.038Z,87.73
2023-03-31T01:48:19.000Z,87.66
2023-03-31T01:50:01.288Z,88.07
2023-03-31T01:51:10.933Z,88.12
2023-03-31T01:52:29.668Z,88.29
2023-03-31T01:53:35.301Z,88.67
2023-03-31T01:54:41.715Z,88.44
2023-03-31T01:56:03.913Z,88.32
2023-03-31T01:57:16.142Z,88.02
2023-03-31T01:58:22.628Z,88.03
2023-03-31T01:59:29.514Z,87.98
2023-03-31T02:00:34.901Z,87.98
2023-03-31T02:01:39.804Z,87.55
2023-03-31T02:03:17.976Z,87.70
2023-03-31T02:04:30.509Z,87.52
2023-03-31T02:05:39.037Z,87.39
2023-03-31T02:06:47.205Z,87.55
2023-03-31T02:08:11.671Z,87.55
2023-03-31T02:09:18.151Z,87.57
2023-03-31T02:10:22.642Z,87.23
2023-03-31T02:11:26.940Z,87.40
2023-03-31T02:12:31.950Z,87.76
2023-03-31T02:13:36.622Z,88.00
2023-03-31T02:14:45.544Z,88.08
2023-03-31T02:15:52.031Z,88.26
2023-03-31T02:16:59.299Z,88.24
2023-03-31T02:18:07.120Z,88.46
2023-03-31T02:19:11.723Z,88.28
2023-03-31T02:20:16.063Z,88.48
2023-03-31T02:21:19.652Z,88.27
2023-03-31T02:22:23.313Z,88.06
2023-03-31T02:23:30.252Z,87.93
2023-03-31T02:24:33.891Z,88.20
2023-03-31T02:25:40.173Z,88.16
2023-03-31T02:27:08.319Z,88.40
2023-03-31T02:28:14.580Z,87.98
2023-03-31T02:29:22.715Z,88.09
2023-03-31T02:30:29.949Z,88.23
2023-03-31T02:31:53.801Z,88.13
2023-03-31T02:32:59.028Z,88.00
2023-03-31T02:34:03.961Z,88.12
2023-03-31T02:35:10.216Z,88.33
2023-03-31T02:36:14.336Z,88.33
2023-03-31T02:37:18.390Z,88.67
2023-03-31T02:38:22.537Z,88.45
2023-03-31T02:39:34.828Z,88.13
2023-03-31T02:40:38.837Z,88.10
2023-03-31T02:41:43.523Z,87.98
2023-03-31T02:42:47.282Z,87.88
2023-03-31T02:43:51.315Z,88.32
2023-03-31T02:44:55.730Z,88.20
2023-03-31T02:45:59.934Z,88.17
2023-03-31T02:47:08.065Z,88.10
2023-03-31T02:48:32.980Z,88.13
2023-03-31T02:49:36.855Z,88.15
2023-03-31T02:51:12.245Z,88.11
2023-03-31T02:52:39.068Z,88.20
2023-03-31T02:53:48.588Z,87.89
2023-03-31T02:54:59.514Z,87.92
2023-03-31T02:56:25.749Z,87.96
2023-03-31T02:58:06.073Z,87.95
2023-03-31T02:59:15.776Z,88.02
2023-03-31T03:01:03.931Z,87.99
2023-03-31T03:02:19.900Z,87.85
2023-03-31T03:03:41.800Z,88.35
2023-03-31T03:05:09.437Z,88.30
2023-03-31T03:06:30.901Z,88.15
2023-03-31T03:07:56.510Z,88.30
2023-03-31T03:09:05.424Z,88.02
2023-03-31T03:10:33.613Z,88.22
2023-03-31T03:12:19.765Z,88.14
2023-03-31T03:13:45.568Z,88.22
2023-03-31T03:16:42.235Z,87.99
2023-03-31T03:17:46.877Z,88.01
2023-03-31T03:19:00.345Z,87.93
2023-03-31T03:20:08.878Z,87.71
2023-03-31T03:21:12.944Z,87.71
2023-03-31T03:22:16.594Z,87.45
2023-03-31T03:23:20.223Z,87.99
2023-03-31T03:24:23.896Z,87.78
2023-03-31T03:25:27.811Z,88.12
2023-03-31T03:26:36.125Z,88.10
2023-03-31T03:27:40.374Z,88.04
2023-03-31T03:28:44.550Z,88.11
2023-03-31T03:29:48.646Z,88.07
2023-03-31T03:30:52.953Z,88.17
2023-03-31T03:31:56.715Z,88.31
2023-03-31T03:33:00.442Z,88.05
2023-03-31T03:34:04.662Z,88.34
2023-03-31T03:35:08.705Z,88.16
2023-03-31T03:36:12.797Z,88.04
2023-03-31T03:37:16.939Z,88.01
2023-03-31T03:38:20.968Z,87.87
2023-03-31T03:39:25.121Z,87.72
2023-03-31T03:40:28.871Z,87.57
2023-03-31T03:41:34.309Z,87.55
2023-03-31T03:42:39.130Z,87.50
2023-03-31T03:43:42.733Z,87.46
2023-03-31T03:44:46.285Z,87.30
2023-03-31T03:45:50.918Z,87.49
2023-03-31T03:46:54.952Z,87.33
2023-03-31T03:47:59.004Z,87.52
2023-03-31T03:49:03.257Z,87.52
2023-03-31T03:50:07.752Z,87.55
2023-03-31T03:51:11.310Z,87.61
2023-03-31T03:52:14.862Z,87.58
2023-03-31T03:53:18.814Z,87.50
2023-03-31T03:54:22.770Z,87.78
2023-03-31T03:55:26.584Z,87.82
2023-03-31T03:56:30.670Z,88.05
2023-03-31T03:57:34.722Z,87.75
2023-03-31T03:58:38.701Z,87.74
2023-03-31T03:59:42.769Z,87.95
2023-03-31T04:00:47.188Z,88.09
2023-03-31T04:01:50.873Z,88.02
2023-03-31T04:02:55.106Z,88.21
2023-03-31T04:03:59.264Z,87.90
2023-03-31T04:05:03.023Z,87.96
2023-03-31T04:06:07.073Z,87.62
2023-03-31T04:07:10.809Z,87.91
2023-03-31T04:08:14.785Z,88.27
2023-03-31T04:09:18.634Z,88.09
2023-03-31T04:10:22.614Z,88.36
2023-03-31T04:11:26.910Z,88.02
2023-03-31T04:12:30.990Z,87.85
2023-03-31T04:13:34.994Z,87.76
2023-03-31T04:14:38.579Z,87.94
2023-03-31T04:15:42.978Z,87.87
2023-03-31T04:16:47.436Z,87.95
2023-03-31T04:17:55.716Z,87.81
2023-03-31T04:19:00.381Z,87.89
2023-03-31T04:20:06.563Z,88.30
2023-03-31T04:21:12.993Z,88.04
2023-03-31T04:22:21.245Z,88.32
2023-03-31T04:23:27.596Z,88.20
2023-03-31T04:24:34.117Z,88.09
2023-03-31T04:25:39.658Z,88.34
2023-03-31T04:26:46.214Z,88.44
2023-03-31T04:27:55.617Z,88.62
2023-03-31T04:29:02.805Z,88.65
2023-03-31T04:30:09.936Z,88.61
2023-03-31T04:31:17.572Z,88.60
2023-03-31T04:32:22.303Z,88.36
2023-03-31T04:33:26.233Z,88.26
2023-03-31T04:34:39.276Z,88.67
2023-03-31T04:35:53.423Z,88.96
2023-03-31T04:36:57.029Z,88.88
2023-03-31T04:38:01.137Z,88.68
2023-03-31T04:39:05.246Z,88.43
2023-03-31T04:40:10.404Z,88.35
2023-03-31T04:41:15.295Z,88.12
2023-03-31T04:42:19.416Z,87.87
2023-03-31T04:43:23.372Z,88.14
2023-03-31T04:44:27.846Z,88.16
2023-03-31T04:45:31.864Z,87.98
2023-03-31T04:46:36.311Z,88.22
2023-03-31T04:47:40.153Z,88.09
2023-03-31T04:48:44.255Z,88.46
2023-03-31T04:49:48.314Z,88.30
2023-03-31T04:50:52.177Z,88.37
2023-03-31T04:51:56.280Z,88.39
2023-03-31T04:52:59.992Z,88.13
2023-03-31T04:54:04.021Z,88.35
2023-03-31T04:55:08.516Z,88.49
2023-03-31T04:56:12.460Z,88.59
2023-03-31T04:57:16.306Z,88.43
2023-03-31T04:58:20.323Z,88.44
2023-03-31T04:59:24.333Z,88.44
2023-03-31T05:00:29.910Z,88.76
2023-03-31T05:01:36.968Z,88.56
2023-03-31T05:02:40.755Z,88.81
2023-03-31T05:03:45.068Z,88.77
2023-03-31T05:04:49.111Z,88.54
2023-03-31T05:05:52.897Z,88.25
2023-03-31T05:06:57.154Z,88.81
2023-03-31T05:08:01.241Z,88.95
2023-03-31T05:09:04.999Z,88.69
2023-03-31T05:10:09.375Z,88.82
2023-03-31T05:11:13.062Z,88.85
2023-03-31T05:12:16.793Z,88.83
2023-03-31T05:13:20.414Z,88.67
2023-03-31T05:14:24.440Z,88.54
2023-03-31T05:15:28.688Z,88.31
2023-03-31T05:16:32.873Z,88.26
2023-03-31T05:17:37.514Z,88.02
2023-03-31T05:18:42.212Z,88.03
2023-03-31T05:19:46.487Z,88.01
2023-03-31T05:20:50.075Z,88.06
2023-03-31T05:21:54.101Z,87.87
2023-03-31T05:22:58.272Z,87.78
2023-03-31T05:24:02.300Z,88.03
2023-03-31T05:25:08.173Z,88.15
2023-03-31T05:26:12.588Z,88.14
2023-03-31T05:27:17.094Z,88.18
2023-03-31T05:28:20.736Z,88.40
2023-03-31T05:29:25.338Z,88.57
2023-03-31T05:30:29.803Z,88.73
2023-03-31T05:31:34.197Z,88.69
2023-03-31T05:32:38.442Z,88.94
2023-03-31T05:33:42.563Z,88.92
2023-03-31T05:34:46.898Z,88.73
2023-03-31T05:35:50.672Z,88.94
2023-03-31T05:36:54.530Z,89.23
2023-03-31T05:37:58.488Z,88.98
2023-03-31T05:39:02.333Z,88.94
2023-03-31T05:40:09.249Z,89.02
2023-03-31T05:41:13.373Z,89.15
2023-03-31T05:42:17.506Z,89.07
2023-03-31T05:43:21.353Z,88.89
2023-03-31T05:44:24.844Z,88.67
2023-03-31T05:45:28.839Z,88.81
2023-03-31T05:46:32.723Z,88.83
2023-03-31T05:47:36.291Z,88.79
2023-03-31T05:48:40.008Z,88.94
2023-03-31T05:49:43.947Z,88.85
2023-03-31T05:50:48.113Z,88.96
2023-03-31T05:51:52.844Z,88.87
2023-03-31T05:52:56.851Z,88.81
2023-03-31T05:54:01.021Z,88.92
2023-03-31T05:55:05.789Z,88.72
2023-03-31T05:56:09.697Z,88.83
2023-03-31T05:57:13.964Z,88.84
2023-03-31T05:58:18.016Z,88.80
2023-03-31T05:59:22.330Z,88.52
2023-03-31T06:00:26.240Z,88.60
2023-03-31T06:01:30.564Z,88.56
2023-03-31T06:02:34.591Z,88.45
2023-03-31T06:03:42.206Z,88.47
2023-03-31T06:04:46.113Z,88.57
2023-03-31T06:05:50.393Z,88.91
2023-03-31T06:06:55.106Z,88.75
2023-03-31T06:07:58.778Z,88.65
2023-03-31T06:09:02.814Z,88.71
2023-03-31T06:10:08.946Z,88.81
2023-03-31T06:11:14.166Z,88.68
2023-03-31T06:12:18.113Z,88.50
2023-03-31T06:13:22.255Z,88.11
2023-03-31T06:14:26.076Z,88.29
2023-03-31T06:15:29.602Z,87.72
2023-03-31T06:16:33.690Z,88.00
2023-03-31T06:17:38.613Z,87.71
2023-03-31T06:18:42.732Z,87.76
2023-03-31T06:19:46.902Z,87.78
2023-03-31T06:20:51.000Z,87.60
2023-03-31T06:21:55.015Z,87.55
2023-03-31T06:22:59.146Z,87.58
2023-03-31T06:24:02.794Z,87.49
2023-03-31T06:25:07.006Z,87.32
2023-03-31T06:26:14.325Z,87.25
2023-03-31T06:27:18.302Z,87.65
2023-03-31T06:28:22.459Z,87.43
2023-03-31T06:29:26.719Z,87.61
2023-03-31T06:30:30.750Z,87.62
2023-03-31T06:31:34.691Z,88.07
2023-03-31T06:32:38.382Z,87.77
2023-03-31T06:33:42.722Z,87.45
2023-03-31T06:34:46.643Z,87.67
2023-03-31T06:35:50.536Z,87.27
2023-03-31T06:36:54.627Z,87.56
2023-03-31T06:37:58.706Z,87.69
2023-03-31T06:39:02.875Z,87.84
2023-03-31T06:40:07.089Z,87.91
2023-03-31T06:41:13.261Z,88.04
2023-03-31T06:42:17.365Z,87.95
2023-03-31T06:43:23.254Z,88.02
2023-03-31T06:44:27.065Z,88.15
2023-03-31T06:45:30.941Z,87.85
2023-03-31T06:46:34.904Z,88.17
2023-03-31T06:47:39.157Z,88.07
2023-03-31T06:48:43.376Z,87.78
2023-03-31T06:49:47.041Z,87.76
2023-03-31T06:50:50.753Z,87.72
2023-03-31T06:51:54.808Z,87.81
2023-03-31T06:52:59.506Z,87.96
2023-03-31T06:54:03.019Z,87.87
2023-03-31T06:55:07.073Z,87.86
2023-03-31T06:56:11.197Z,87.52
2023-03-31T06:57:15.412Z,87.53
2023-03-31T06:58:19.164Z,87.59
2023-03-31T06:59:22.775Z,87.27
2023-03-31T07:00:28.172Z,87.33
2023-03-31T07:01:32.538Z,86.91
2023-03-31T07:02:37.720Z,86.81
2023-03-31T07:03:42.258Z,86.76
2023-03-31T07:04:46.420Z,86.98
2023-03-31T07:05:53.809Z,87.04
2023-03-31T07:06:59.289Z,86.69
2023-03-31T07:08:03.287Z,86.55
2023-03-31T07:09:07.358Z,86.42
2023-03-31T07:10:11.428Z,86.27
2023-03-31T07:11:15.725Z,86.06
2023-03-31T07:12:19.823Z,86.56
2023-03-31T07:13:23.622Z,86.31
2023-03-31T07:14:27.675Z,86.26
2023-03-31T07:15:31.418Z,85.91
2023-03-31T07:16:35.626Z,85.72
2023-03-31T07:17:43.056Z,86.00
2023-03-31T07:18:47.650Z,85.69
2023-03-31T07:19:51.441Z,85.65
2023-03-31T07:20:55.087Z,85.91
2023-03-31T07:21:59.267Z,85.85
2023-03-31T07:23:05.692Z,85.44
2023-03-31T07:24:09.790Z,85.26
2023-03-31T07:25:15.555Z,85.05
2023-03-31T07:26:19.745Z,84.74
2023-03-31T07:27:26.062Z,84.54
2023-03-31T07:28:30.985Z,84.31
2023-03-31T07:29:34.934Z,84.14
2023-03-31T07:30:39.119Z,83.67
2023-03-31T07:31:43.081Z,83.57
2023-03-31T07:32:51.114Z,83.35
2023-03-31T07:33:55.658Z,83.10
2023-03-31T07:34:59.459Z,83.02
2023-03-31T07:36:12.437Z,83.00
2023-03-31T07:37:17.835Z,83.18
2023-03-31T07:38:21.875Z,82.65
2023-03-31T07:39:25.569Z,82.98
2023-03-31T07:40:30.161Z,83.07
2023-03-31T07:41:34.340Z,83.08
2023-03-31T07:42:38.460Z,83.31
2023-03-31T07:43:42.543Z,83.18
2023-03-31T07:44:46.276Z,83.35
2023-03-31T07:45:50.454Z,83.08
2023-03-31T07:46:54.716Z,83.71
2023-03-31T07:47:58.833Z,83.33
2023-03-31T07:49:04.281Z,83.31
2023-03-31T07:50:09.012Z,83.42
2023-03-31T07:51:13.282Z,83.11
2023-03-31T07:52:18.376Z,82.88
2023-03-31T07:53:22.268Z,82.85
2023-03-31T07:54:26.708Z,82.62
2023-03-31T07:55:30.783Z,82.11
2023-03-31T07:56:34.964Z,81.75
2023-03-31T07:57:39.397Z,81.23
2023-03-31T07:58:43.481Z,80.55
2023-03-31T07:59:47.781Z,80.38
2023-03-31T08:00:51.473Z,80.23
2023-03-31T08:01:55.665Z,80.06
2023-03-31T08:03:00.078Z,79.87
2023-03-31T08:04:04.932Z,80.10
2023-03-31T08:05:09.425Z,80.05
2023-03-31T08:06:13.412Z,79.70
2023-03-31T08:07:18.140Z,79.38
2023-03-31T08:08:22.345Z,78.88
2023-03-31T08:09:26.611Z,78.90
2023-03-31T08:10:30.759Z,78.71
2023-03-31T08:11:34.547Z,78.31
2023-03-31T08:12:38.257Z,77.92
2023-03-31T08:13:42.389Z,77.13
2023-03-31T08:14:46.065Z,76.08
2023-03-31T08:15:49.760Z,75.05
2023-03-31T08:16:56.023Z,75.30
2023-03-31T08:17:59.662Z,75.20
2023-03-31T08:19:04.231Z,74.77
2023-03-31T08:20:09.143Z,75.00
2023-03-31T08:21:13.499Z,75.18
2023-03-31T08:22:17.752Z,75.08
2023-03-31T08:23:28.316Z,74.38
2023-03-31T08:24:35.569Z,74.96
2023-03-31T08:25:39.672Z,74.88
2023-03-31T08:26:44.921Z,74.96
2023-03-31T08:27:55.642Z,74.52
2023-03-31T08:29:00.120Z,73.46
2023-03-31T08:30:05.315Z,71.82
2023-03-31T08:31:09.503Z,70.93
2023-03-31T08:32:13.357Z,70.29
2023-03-31T08:33:17.196Z,69.92
2023-03-31T08:34:20.842Z,70.11
2023-03-31T08:35:24.477Z,70.50
2023-03-31T08:36:28.651Z,70.81
2023-03-31T08:37:33.407Z,71.17
2023-03-31T08:38:42.281Z,71.38
2023-03-31T08:39:46.889Z,71.80
2023-03-31T08:40:50.678Z,71.94
2023-03-31T08:42:05.169Z,71.68
2023-03-31T08:43:19.511Z,71.56
2023-03-31T08:44:32.270Z,71.48
2023-03-31T08:45:41.014Z,71.29
2023-03-31T08:46:44.701Z,71.44
2023-03-31T08:47:49.470Z,70.81
2023-03-31T08:48:55.636Z,70.40
2023-03-31T08:50:00.418Z,69.68
2023-03-31T08:51:40.581Z,68.03
2023-03-31T08:53:06.015Z,66.42
2023-03-31T08:54:38.404Z,66.38
2023-03-31T08:55:53.887Z,63.45
2023-03-31T08:56:58.131Z,60.32
2023-03-31T08:58:14.961Z,58.72
2023-03-31T08:59:32.356Z,57.17
2023-03-31T09:00:45.014Z,56.64
2023-03-31T09:01:57.308Z,55.51
2023-03-31T09:03:07.552Z,53.59
2023-03-31T09:04:12.488Z,53.60
2023-03-31T09:05:31.925Z,54.05
2023-03-31T09:06:41.365Z,54.27
2023-03-31T09:07:47.983Z,54.57
2023-03-31T09:08:51.701Z,55.48
2023-03-31T09:10:07.232Z,55.97
2023-03-31T09:11:38.219Z,57.73
2023-03-31T09:12:45.138Z,58.62
2023-03-31T09:14:53.822Z,60.29
2023-03-31T09:16:16.926Z,60.66
2023-03-31T09:17:34.871Z,60.21
2023-03-31T09:18:39.679Z,60.78
2023-03-31T09:19:51.169Z,60.90
2023-03-31T09:21:03.284Z,59.66
2023-03-31T09:22:11.325Z,59.31
2023-03-31T09:23:34.762Z,56.05
2023-03-31T09:24:53.075Z,55.64
2023-03-31T09:25:57.265Z,54.41
2023-03-31T09:27:06.534Z,53.14
2023-03-31T09:28:20.798Z,53.09
2023-03-31T09:29:57.932Z,51.08
2023-03-31T09:31:04.443Z,50.06
2023-03-31T09:32:21.419Z,50.05
2023-03-31T09:33:32.975Z,49.90
2023-03-31T09:34:37.529Z,49.66
2023-03-31T09:35:41.710Z,47.96
2023-03-31T09:36:46.305Z,45.77
2023-03-31T09:37:50.304Z,44.86
2023-03-31T09:38:54.372Z,44.13
2023-03-31T09:40:00.397Z,44.36
2023-03-31T09:41:04.557Z,45.02
2023-03-31T09:42:08.724Z,44.67
2023-03-31T09:43:24.118Z,44.09
2023-03-31T09:44:29.091Z,45.42
2023-03-31T09:45:34.662Z,44.83
2023-03-31T09:46:39.400Z,43.85
2023-03-31T09:47:44.773Z,44.37
2023-03-31T09:48:56.042Z,43.91
2023-03-31T09:50:00.273Z,42.54
2023-03-31T09:51:09.071Z,41.21
2023-03-31T09:52:31.584Z,39.38
2023-03-31T09:53:36.468Z,37.72
2023-03-31T09:54:47.728Z,37.05
2023-03-31T09:55:54.025Z,37.67
2023-03-31T09:56:57.912Z,36.16
2023-03-31T09:58:05.039Z,35.81
2023-03-31T09:59:18.622Z,36.10
2023-03-31T10:00:24.120Z,35.21
2023-03-31T10:01:28.294Z,35.14
2023-03-31T10:02:38.786Z,34.33
2023-03-31T10:03:53.005Z,33.77
2023-03-31T10:04:56.829Z,33.50
2023-03-31T10:06:00.969Z,33.07
2023-03-31T10:07:05.657Z,33.65
2023-03-31T10:08:19.267Z,34.04
2023-03-31T10:09:27.574Z,33.78
2023-03-31T10:10:34.627Z,34.69
2023-03-31T10:11:38.639Z,35.17
2023-03-31T10:12:43.716Z,35.03
2023-03-31T10:13:49.394Z,35.92
2023-03-31T10:14:55.743Z,35.57
2023-03-31T10:16:13.759Z,35.96
2023-03-31T10:17:19.250Z,36.05
2023-03-31T10:18:23.174Z,35.83
2023-03-31T10:19:28.362Z,35.40
2023-03-31T10:20:38.268Z,34.58
2023-03-31T10:21:42.450Z,34.37
2023-03-31T10:22:47.101Z,34.09
2023-03-31T10:23:51.832Z,34.05
2023-03-31T10:24:55.934Z,33.71
2023-03-31T10:26:00.070Z,33.45
2023-03-31T10:27:03.749Z,32.80
2023-03-31T10:28:07.422Z,33.07
2023-03-31T10:29:14.683Z,33.67
2023-03-31T10:30:29.845Z,34.06
2023-03-31T10:31:37.736Z,34.10
2023-03-31T10:32:43.782Z,34.28
2023-03-31T10:33:50.007Z,32.20
2023-03-31T10:34:54.310Z,32.59
2023-03-31T10:35:59.709Z,32.19
2023-03-31T10:37:05.000Z,32.82
2023-03-31T10:38:28.174Z,32.80
2023-03-31T10:39:33.496Z,32.34
2023-03-31T10:40:37.892Z,31.89
2023-03-31T10:41:42.248Z,30.75
2023-03-31T10:42:47.490Z,31.81
2023-03-31T10:44:01.892Z,31.52
2023-03-31T10:45:36.676Z,31.83
2023-03-31T10:46:43.452Z,30.62
2023-03-31T10:47:49.522Z,30.67
2023-03-31T10:48:53.798Z,31.15
2023-03-31T10:49:58.581Z,30.94
2023-03-31T10:51:07.322Z,30.73
2023-03-31T10:52:29.674Z,30.55
2023-03-31T10:53:54.988Z,29.34
2023-03-31T10:55:04.383Z,29.53
2023-03-31T10:56:13.852Z,29.57
2023-03-31T10:57:18.406Z,29.60
2023-03-31T10:59:02.335Z,30.15
2023-03-31T11:00:25.249Z,30.29
2023-03-31T11:01:39.911Z,30.03
2023-03-31T11:02:52.546Z,30.67
2023-03-31T11:04:28.835Z,30.08
2023-03-31T11:05:55.953Z,31.17
2023-03-31T11:07:07.679Z,30.40
2023-03-31T11:08:44.541Z,30.19
2023-03-31T11:10:01.096Z,31.24
2023-03-31T11:11:11.698Z,31.91
2023-03-31T11:12:21.003Z,32.32
2023-03-31T11:13:42.969Z,30.96
2023-03-31T11:14:55.269Z,30.24
2023-03-31T11:16:17.283Z,29.91
2023-03-31T11:17:26.546Z,30.52
2023-03-31T11:18:53.276Z,31.45
2023-03-31T11:20:10.408Z,30.70
2023-03-31T11:21:32.978Z,30.35
2023-03-31T11:23:08.762Z,31.74
2023-03-31T11:24:34.739Z,30.88
2023-03-31T11:25:58.815Z,31.04
2023-03-31T11:27:27.229Z,31.75
2023-03-31T11:29:02.749Z,32.11
2023-03-31T11:30:18.608Z,31.67
2023-03-31T11:31:28.892Z,31.25
2023-03-31T11:32:58.264Z,31.45
2023-03-31T11:34:10.969Z,31.61
2023-03-31T11:35:18.994Z,30.79
2023-03-31T11:36:32.256Z,31.07
2023-03-31T11:37:42.172Z,31.38
2023-03-31T11:39:00.863Z,31.17
2023-03-31T11:40:45.735Z,31.85
2023-03-31T11:41:52.147Z,30.16
2023-03-31T11:43:19.323Z,30.48
2023-03-31T11:44:23.817Z,30.90
2023-03-31T11:45:30.722Z,30.14
2023-03-31T11:46:40.352Z,30.73
2023-03-31T11:47:45.314Z,30.90
2023-03-31T11:49:02.516Z,31.26
2023-03-31T11:50:12.648Z,30.63
2023-03-31T11:51:18.013Z,31.46
2023-03-31T11:52:43.358Z,30.75
2023-03-31T11:53:47.024Z,31.63
2023-03-31T11:54:53.110Z,31.47
2023-03-31T11:55:57.156Z,31.44
2023-03-31T11:57:03.722Z,30.47
2023-03-31T11:58:12.261Z,30.15
2023-03-31T11:59:17.588Z,30.33
2023-03-31T12:00:28.009Z,30.71
2023-03-31T12:01:44.604Z,30.06
2023-03-31T12:02:56.225Z,30.00
2023-03-31T12:04:07.877Z,30.07
2023-03-31T12:05:12.357Z,29.82
2023-03-31T12:06:21.716Z,29.37
2023-03-31T12:07:32.201Z,31.36
2023-03-31T12:08:47.797Z,31.70
2023-03-31T12:10:14.514Z,29.82
2023-03-31T12:11:21.386Z,28.04
2023-03-31T12:12:28.696Z,29.88
2023-03-31T12:13:50.949Z,29.65
2023-03-31T12:14:56.275Z,29.37
2023-03-31T12:16:02.411Z,30.34
2023-03-31T12:17:13.879Z,30.31
2023-03-31T12:18:22.032Z,29.76
2023-03-31T12:19:43.587Z,28.88
2023-03-31T12:20:53.176Z,28.06
2023-03-31T12:22:00.129Z,29.40
2023-03-31T12:23:04.514Z,29.41
2023-03-31T12:24:14.234Z,29.32
2023-03-31T12:25:24.236Z,28.88
2023-03-31T12:26:43.056Z,27.51
2023-03-31T12:27:55.256Z,27.10
2023-03-31T12:29:01.511Z,27.02
2023-03-31T12:30:29.922Z,27.07
2023-03-31T12:31:36.653Z,27.41
2023-03-31T12:32:44.749Z,28.19
2023-03-31T12:33:55.144Z,27.37
2023-03-31T12:35:05.695Z,28.77
2023-03-31T12:36:33.666Z,28.88
2023-03-31T12:37:59.715Z,28.27
2023-03-31T12:39:09.435Z,26.75
2023-03-31T12:40:40.182Z,26.58
2023-03-31T12:42:09.534Z,27.72
2023-03-31T12:43:20.288Z,27.46
2023-03-31T12:44:29.831Z,28.21
2023-03-31T12:45:40.295Z,28.13
2023-03-31T12:47:13.182Z,28.74
2023-03-31T12:48:34.894Z,27.35
2023-03-31T12:50:01.808Z,27.26
2023-03-31T12:51:34.260Z,27.39
2023-03-31T12:53:00.615Z,27.02
2023-03-31T12:54:23.766Z,27.02
2023-03-31T12:55:38.815Z,26.58
2023-03-31T12:57:01.729Z,27.07
2023-03-31T12:58:47.280Z,27.41
2023-03-31T13:00:15.294Z,27.42
2023-03-31T13:01:25.087Z,27.79
2023-03-31T13:02:28.877Z,28.09
2023-03-31T13:04:18.706Z,27.36
2023-03-31T13:05:40.260Z,28.11
2023-03-31T13:06:44.211Z,27.95
2023-03-31T13:07:47.990Z,27.23
2023-03-31T13:08:52.752Z,27.56
2023-03-31T13:10:00.563Z,27.63
2023-03-31T13:11:04.245Z,28.48
2023-03-31T13:12:09.897Z,28.91
2023-03-31T13:13:15.579Z,29.34
2023-03-31T13:14:24.725Z,30.38
2023-03-31T13:15:29.091Z,28.90
2023-03-31T13:16:37.486Z,29.33
2023-03-31T13:17:41.950Z,30.42
2023-03-31T13:18:48.405Z,29.69
2023-03-31T13:19:52.928Z,30.28
2023-03-31T13:21:01.206Z,31.54
2023-03-31T13:22:06.010Z,31.80
2023-03-31T13:23:21.504Z,33.76
2023-03-31T13:24:26.498Z,34.07
2023-03-31T13:25:41.232Z,33.74
2023-03-31T13:26:48.367Z,34.16
2023-03-31T13:27:54.686Z,34.17
2023-03-31T13:29:12.769Z,34.70
2023-03-31T13:30:37.630Z,35.31
2023-03-31T13:32:02.732Z,34.08
2023-03-31T13:33:17.770Z,34.82
2023-03-31T13:34:22.670Z,34.59
2023-03-31T13:35:28.153Z,34.43
2023-03-31T13:36:34.759Z,35.15
2023-03-31T13:38:08.260Z,35.32
2023-03-31T13:39:36.365Z,34.64
2023-03-31T13:41:03.756Z,34.97
2023-03-31T13:42:16.086Z,36.33
2023-03-31T13:43:42.196Z,36.78
2023-03-31T13:45:10.638Z,38.64
2023-03-31T13:46:37.185Z,37.84
2023-03-31T13:48:10.293Z,36.75
2023-03-31T13:49:26.369Z,36.80
2023-03-31T13:50:39.092Z,37.88
2023-03-31T13:52:05.469Z,37.38
2023-03-31T13:53:31.411Z,37.72
2023-03-31T13:54:54.962Z,37.35
2023-03-31T13:56:10.803Z,38.60
2023-03-31T13:57:51.509Z,37.69
2023-03-31T13:59:10.562Z,37.45
2023-03-31T14:00:42.642Z,37.14
2023-03-31T14:01:55.064Z,36.94
2023-03-31T14:03:18.406Z,37.28
2023-03-31T14:04:22.361Z,38.35
2023-03-31T14:05:46.093Z,37.52
2023-03-31T14:07:19.975Z,39.75
2023-03-31T14:09:06.398Z,38.86
2023-03-31T14:10:33.495Z,38.70
2023-03-31T14:11:37.708Z,39.69
2023-03-31T14:12:41.455Z,39.30
2023-03-31T14:13:45.522Z,38.82
2023-03-31T14:14:49.791Z,39.50
2023-03-31T14:15:54.811Z,38.69
2023-03-31T14:17:00.571Z,38.53
2023-03-31T14:18:05.824Z,39.08
2023-03-31T14:19:28.368Z,40.62
2023-03-31T14:20:43.635Z,41.26
2023-03-31T14:21:50.700Z,40.08
2023-03-31T14:23:00.016Z,40.73
2023-03-31T14:24:28.098Z,40.90
2023-03-31T14:25:47.681Z,40.61
2023-03-31T14:27:03.464Z,40.67
2023-03-31T14:28:27.231Z,39.78
2023-03-31T14:29:52.389Z,38.99
2023-03-31T14:31:14.804Z,39.38
2023-03-31T14:32:24.675Z,40.38
2023-03-31T14:33:55.549Z,41.45
2023-03-31T14:35:39.996Z,41.74
2023-03-31T14:36:53.329Z,39.28
2023-03-31T14:37:57.813Z,38.27
2023-03-31T14:39:05.856Z,37.26
2023-03-31T14:40:14.582Z,37.66
2023-03-31T14:41:21.409Z,37.52
2023-03-31T14:42:38.685Z,38.21
2023-03-31T14:43:45.263Z,39.83
2023-03-31T14:44:49.180Z,39.56
2023-03-31T14:46:03.651Z,39.60
2023-03-31T14:47:07.501Z,38.44
2023-03-31T14:48:14.567Z,39.94
2023-03-31T14:50:03.111Z,40.35
2023-03-31T14:51:10.506Z,40.01
2023-03-31T14:52:24.058Z,40.30
2023-03-31T14:53:28.775Z,40.31
2023-03-31T14:54:35.430Z,40.41
2023-03-31T14:55:54.821Z,40.40
2023-03-31T14:57:03.250Z,41.52
2023-03-31T14:58:07.128Z,41.14
2023-03-31T14:59:10.632Z,40.76
2023-03-31T15:00:18.428Z,41.15